Crisnee, Belgium
Current Conditions -  °F | °C
As of 9:50 AM on Wednesday 22 Oct 2014 (Local Time) from EBLG Reporting Station
Scattered Clouds Scattered Clouds  
Wind Chill: 38°   Ceiling: Unl
Heat Index: 45°   Visibility: 5mi
Dew Point: 41°   Wind: 14mph
Humidity: 87%   Direction: 270°W
Pressure: 30.09"   Gusts: NA
Location:  50.72°N, 5.4°E
Report Text: EBLG 220750Z 27012KT 8000 FEW015 SCT049 07/05 Q1019 TEMPO 28018G28KT 3000 SHRA
Loading
Personal Weather Stations






























Interactive Weather Map
Tropical Storm Tracking
New forecast layout! Learn more

10-Day Weather Forecast

Advertisements
Track Severe Weather on mobile